sensor_id;sensor_type;location;lat;lon;timestamp;temperature;humidity
10581;DHT22;5338;51.500;6.802;2023-02-15T00:00:21;6.30;99.90
10581;DHT22;5338;51.500;6.802;2023-02-15T00:02:48;6.30;99.90
10581;DHT22;5338;51.500;6.802;2023-02-15T00:05:15;6.30;99.90
10581;DHT22;5338;51.500;6.802;2023-02-15T00:07:41;6.30;99.90
10581;DHT22;5338;51.500;6.802;2023-02-15T00:10:09;6.30;99.90
10581;DHT22;5338;51.500;6.802;2023-02-15T00:12:37;6.30;99.90
10581;DHT22;5338;51.500;6.802;2023-02-15T00:15:06;6.30;99.90
10581;DHT22;5338;51.500;6.802;2023-02-15T00:17:32;6.20;99.90
10581;DHT22;5338;51.500;6.802;2023-02-15T00:19:59;6.20;99.90
10581;DHT22;5338;51.500;6.802;2023-02-15T00:22:26;6.10;99.90
10581;DHT22;5338;51.500;6.802;2023-02-15T00:24:53;6.10;99.90
10581;DHT22;5338;51.500;6.802;2023-02-15T00:27:19;6.30;99.90
10581;DHT22;5338;51.500;6.802;2023-02-15T00:29:47;6.20;99.90
10581;DHT22;5338;51.500;6.802;2023-02-15T00:32:15;6.20;99.90
10581;DHT22;5338;51.500;6.802;2023-02-15T00:34:42;6.10;99.90
10581;DHT22;5338;51.500;6.802;2023-02-15T00:37:09;6.10;99.90
10581;DHT22;5338;51.500;6.802;2023-02-15T00:39:36;6.30;99.90
10581;DHT22;5338;51.500;6.802;2023-02-15T00:42:03;6.20;99.90
10581;DHT22;5338;51.500;6.802;2023-02-15T00:44:30;6.10;99.90
10581;DHT22;5338;51.500;6.802;2023-02-15T00:46:57;6.10;99.90
10581;DHT22;5338;51.500;6.802;2023-02-15T00:49:25;6.10;99.90
10581;DHT22;5338;51.500;6.802;2023-02-15T00:51:51;6.10;99.90
10581;DHT22;5338;51.500;6.802;2023-02-15T00:54:18;6.10;99.90
10581;DHT22;5338;51.500;6.802;2023-02-15T00:56:45;6.10;99.90
10581;DHT22;5338;51.500;6.802;2023-02-15T00:59:12;6.10;99.90
10581;DHT22;5338;51.500;6.802;2023-02-15T01:01:39;6.10;99.90
10581;DHT22;5338;51.500;6.802;2023-02-15T01:04:06;6.00;99.90
10581;DHT22;5338;51.500;6.802;2023-02-15T01:06:35;6.00;99.90
10581;DHT22;5338;51.500;6.802;2023-02-15T01:09:02;5.90;99.90
10581;DHT22;5338;51.500;6.802;2023-02-15T01:11:29;5.90;99.90
10581;DHT22;5338;51.500;6.802;2023-02-15T01:13:57;5.90;99.90
10581;DHT22;5338;51.500;6.802;2023-02-15T01:16:26;5.90;99.90
10581;DHT22;5338;51.500;6.802;2023-02-15T01:18:53;5.90;99.90
10581;DHT22;5338;51.500;6.802;2023-02-15T01:21:22;5.90;99.90
10581;DHT22;5338;51.500;6.802;2023-02-15T01:23:51;5.80;99.90
10581;DHT22;5338;51.500;6.802;2023-02-15T01:26:18;5.80;99.90
10581;DHT22;5338;51.500;6.802;2023-02-15T01:28:45;5.80;99.90
10581;DHT22;5338;51.500;6.802;2023-02-15T01:31:14;5.80;99.90
10581;DHT22;5338;51.500;6.802;2023-02-15T01:33:42;5.80;99.90
10581;DHT22;5338;51.500;6.802;2023-02-15T01:36:09;5.80;99.90
10581;DHT22;5338;51.500;6.802;2023-02-15T01:38:36;5.70;99.90
10581;DHT22;5338;51.500;6.802;2023-02-15T01:41:04;5.70;99.90
10581;DHT22;5338;51.500;6.802;2023-02-15T01:43:50;5.60;99.90
10581;DHT22;5338;51.500;6.802;2023-02-15T01:46:20;5.50;99.90
10581;DHT22;5338;51.500;6.802;2023-02-15T01:48:48;5.50;99.90
10581;DHT22;5338;51.500;6.802;2023-02-15T01:51:20;5.50;99.90
10581;DHT22;5338;51.500;6.802;2023-02-15T01:53:50;5.50;99.90
10581;DHT22;5338;51.500;6.802;2023-02-15T01:56:22;5.50;99.90
10581;DHT22;5338;51.500;6.802;2023-02-15T01:58:51;5.50;99.90
10581;DHT22;5338;51.500;6.802;2023-02-15T02:01:19;5.50;99.90
10581;DHT22;5338;51.500;6.802;2023-02-15T02:03:53;5.50;99.90
10581;DHT22;5338;51.500;6.802;2023-02-15T02:06:23;5.60;99.90
10581;DHT22;5338;51.500;6.802;2023-02-15T02:08:52;5.50;99.90
10581;DHT22;5338;51.500;6.802;2023-02-15T02:11:20;5.40;99.90
10581;DHT22;5338;51.500;6.802;2023-02-15T02:13:48;5.40;99.90
10581;DHT22;5338;51.500;6.802;2023-02-15T02:16:21;5.40;99.90
10581;DHT22;5338;51.500;6.802;2023-02-15T02:19:01;5.40;99.90
10581;DHT22;5338;51.500;6.802;2023-02-15T02:22:16;5.40;99.90
10581;DHT22;5338;51.500;6.802;2023-02-15T02:25:12;5.40;99.90
10581;DHT22;5338;51.500;6.802;2023-02-15T02:27:44;5.40;99.90
10581;DHT22;5338;51.500;6.802;2023-02-15T02:30:34;5.40;99.90
10581;DHT22;5338;51.500;6.802;2023-02-15T02:33:29;5.30;99.90
10581;DHT22;5338;51.500;6.802;2023-02-15T02:36:06;5.30;99.90
10581;DHT22;5338;51.500;6.802;2023-02-15T02:38:52;5.20;99.90
10581;DHT22;5338;51.500;6.802;2023-02-15T02:41:27;5.20;99.90
10581;DHT22;5338;51.500;6.802;2023-02-15T02:44:02;5.20;99.90
10581;DHT22;5338;51.500;6.802;2023-02-15T02:46:33;5.30;99.90
10581;DHT22;5338;51.500;6.802;2023-02-15T02:49:03;5.30;99.90
10581;DHT22;5338;51.500;6.802;2023-02-15T02:51:30;5.30;99.90
10581;DHT22;5338;51.500;6.802;2023-02-15T02:54:00;5.20;99.90
10581;DHT22;5338;51.500;6.802;2023-02-15T02:56:34;5.20;99.90
10581;DHT22;5338;51.500;6.802;2023-02-15T02:59:06;5.20;99.90
10581;DHT22;5338;51.500;6.802;2023-02-15T03:01:37;5.20;99.90
10581;DHT22;5338;51.500;6.802;2023-02-15T03:04:09;5.30;99.90
10581;DHT22;5338;51.500;6.802;2023-02-15T03:06:39;5.20;99.90
10581;DHT22;5338;51.500;6.802;2023-02-15T03:09:10;5.20;99.90
10581;DHT22;5338;51.500;6.802;2023-02-15T03:11:40;5.30;99.90
10581;DHT22;5338;51.500;6.802;2023-02-15T03:14:08;5.20;99.90
10581;DHT22;5338;51.500;6.802;2023-02-15T03:16:34;5.20;99.90
10581;DHT22;5338;51.500;6.802;2023-02-15T03:19:07;5.10;99.90
10581;DHT22;5338;51.500;6.802;2023-02-15T03:21:39;5.10;99.90
10581;DHT22;5338;51.500;6.802;2023-02-15T03:24:10;5.00;99.90
10581;DHT22;5338;51.500;6.802;2023-02-15T03:26:40;5.10;99.90
10581;DHT22;5338;51.500;6.802;2023-02-15T03:29:10;5.10;99.90
10581;DHT22;5338;51.500;6.802;2023-02-15T03:31:41;5.00;99.90
10581;DHT22;5338;51.500;6.802;2023-02-15T03:34:11;5.10;99.90
10581;DHT22;5338;51.500;6.802;2023-02-15T03:36:43;5.10;99.90
10581;DHT22;5338;51.500;6.802;2023-02-15T03:39:16;5.00;99.90
10581;DHT22;5338;51.500;6.802;2023-02-15T03:41:49;5.00;99.90
10581;DHT22;5338;51.500;6.802;2023-02-15T03:44:25;5.00;99.90
10581;DHT22;5338;51.500;6.802;2023-02-15T03:46:58;5.10;99.90
10581;DHT22;5338;51.500;6.802;2023-02-15T03:49:31;5.00;99.90
10581;DHT22;5338;51.500;6.802;2023-02-15T03:52:03;5.00;99.90
10581;DHT22;5338;51.500;6.802;2023-02-15T03:54:33;5.00;99.90
10581;DHT22;5338;51.500;6.802;2023-02-15T03:57:16;4.90;99.90
10581;DHT22;5338;51.500;6.802;2023-02-15T04:00:04;4.90;99.90
10581;DHT22;5338;51.500;6.802;2023-02-15T04:03:11;4.90;99.90
10581;DHT22;5338;51.500;6.802;2023-02-15T04:05:40;4.90;99.90
10581;DHT22;5338;51.500;6.802;2023-02-15T04:08:08;4.90;99.90
10581;DHT22;5338;51.500;6.802;2023-02-15T04:10:34;4.90;99.90
10581;DHT22;5338;51.500;6.802;2023-02-15T04:13:19;4.90;99.90
10581;DHT22;5338;51.500;6.802;2023-02-15T04:15:46;5.00;99.90
10581;DHT22;5338;51.500;6.802;2023-02-15T04:18:31;4.90;99.90
10581;DHT22;5338;51.500;6.802;2023-02-15T04:21:18;4.80;99.90
10581;DHT22;5338;51.500;6.802;2023-02-15T04:24:02;4.90;99.90
10581;DHT22;5338;51.500;6.802;2023-02-15T04:26:46;4.90;99.90
10581;DHT22;5338;51.500;6.802;2023-02-15T04:29:14;4.80;99.90
10581;DHT22;5338;51.500;6.802;2023-02-15T04:31:41;4.80;99.90
10581;DHT22;5338;51.500;6.802;2023-02-15T04:34:09;4.80;99.90
10581;DHT22;5338;51.500;6.802;2023-02-15T04:36:37;4.80;99.90
10581;DHT22;5338;51.500;6.802;2023-02-15T04:39:05;4.70;99.90
10581;DHT22;5338;51.500;6.802;2023-02-15T04:41:32;4.70;99.90
10581;DHT22;5338;51.500;6.802;2023-02-15T04:43:59;4.70;99.90
10581;DHT22;5338;51.500;6.802;2023-02-15T04:46:27;4.60;99.90
10581;DHT22;5338;51.500;6.802;2023-02-15T04:48:54;4.60;99.90
10581;DHT22;5338;51.500;6.802;2023-02-15T04:51:21;4.70;99.90
10581;DHT22;5338;51.500;6.802;2023-02-15T04:53:50;4.70;99.90
10581;DHT22;5338;51.500;6.802;2023-02-15T04:56:18;4.60;99.90
10581;DHT22;5338;51.500;6.802;2023-02-15T04:58:45;4.60;99.90
10581;DHT22;5338;51.500;6.802;2023-02-15T05:01:11;4.60;99.90
10581;DHT22;5338;51.500;6.802;2023-02-15T05:03:38;4.50;99.90
10581;DHT22;5338;51.500;6.802;2023-02-15T05:06:05;4.50;99.90
10581;DHT22;5338;51.500;6.802;2023-02-15T05:08:32;4.40;99.90
10581;DHT22;5338;51.500;6.802;2023-02-15T05:11:00;4.40;99.90
10581;DHT22;5338;51.500;6.802;2023-02-15T05:13:27;4.40;99.90
10581;DHT22;5338;51.500;6.802;2023-02-15T05:15:54;4.40;99.90
10581;DHT22;5338;51.500;6.802;2023-02-15T05:18:21;4.50;99.90
10581;DHT22;5338;51.500;6.802;2023-02-15T05:20:48;4.50;99.90
10581;DHT22;5338;51.500;6.802;2023-02-15T05:23:15;4.30;99.90
10581;DHT22;5338;51.500;6.802;2023-02-15T05:25:46;4.30;99.90
10581;DHT22;5338;51.500;6.802;2023-02-15T05:28:32;4.40;99.90
10581;DHT22;5338;51.500;6.802;2023-02-15T05:31:03;4.40;99.90
10581;DHT22;5338;51.500;6.802;2023-02-15T05:33:30;4.40;99.90
10581;DHT22;5338;51.500;6.802;2023-02-15T05:35:57;4.40;99.90
10581;DHT22;5338;51.500;6.802;2023-02-15T05:38:24;4.30;99.90
10581;DHT22;5338;51.500;6.802;2023-02-15T05:40:51;4.30;99.90
10581;DHT22;5338;51.500;6.802;2023-02-15T05:43:18;4.20;99.90
10581;DHT22;5338;51.500;6.802;2023-02-15T05:45:46;4.10;99.90
10581;DHT22;5338;51.500;6.802;2023-02-15T05:48:13;4.10;99.90
10581;DHT22;5338;51.500;6.802;2023-02-15T05:50:40;4.10;99.90
10581;DHT22;5338;51.500;6.802;2023-02-15T05:53:07;4.00;99.90
10581;DHT22;5338;51.500;6.802;2023-02-15T05:55:33;4.00;99.90
10581;DHT22;5338;51.500;6.802;2023-02-15T05:58:00;4.00;99.90
10581;DHT22;5338;51.500;6.802;2023-02-15T06:00:27;4.00;99.90
10581;DHT22;5338;51.500;6.802;2023-02-15T06:02:55;4.00;99.90
10581;DHT22;5338;51.500;6.802;2023-02-15T06:05:23;3.90;99.90
10581;DHT22;5338;51.500;6.802;2023-02-15T06:07:49;3.90;99.90
10581;DHT22;5338;51.500;6.802;2023-02-15T06:10:16;3.80;99.90
10581;DHT22;5338;51.500;6.802;2023-02-15T06:12:43;3.80;99.90
10581;DHT22;5338;51.500;6.802;2023-02-15T06:15:10;3.80;99.90
10581;DHT22;5338;51.500;6.802;2023-02-15T06:17:37;3.80;99.90
10581;DHT22;5338;51.500;6.802;2023-02-15T06:20:06;3.70;99.90
10581;DHT22;5338;51.500;6.802;2023-02-15T06:22:33;3.70;99.90
10581;DHT22;5338;51.500;6.802;2023-02-15T06:25:00;3.70;99.90
10581;DHT22;5338;51.500;6.802;2023-02-15T06:27:27;3.70;99.90
10581;DHT22;5338;51.500;6.802;2023-02-15T06:29:54;3.70;99.90
10581;DHT22;5338;51.500;6.802;2023-02-15T06:32:20;3.70;99.90
10581;DHT22;5338;51.500;6.802;2023-02-15T06:34:47;3.70;99.90
10581;DHT22;5338;51.500;6.802;2023-02-15T06:37:15;3.60;99.90
10581;DHT22;5338;51.500;6.802;2023-02-15T06:39:42;3.60;99.90
10581;DHT22;5338;51.500;6.802;2023-02-15T06:42:09;3.60;99.90
10581;DHT22;5338;51.500;6.802;2023-02-15T06:44:36;3.60;99.90
10581;DHT22;5338;51.500;6.802;2023-02-15T06:47:03;3.60;99.90
10581;DHT22;5338;51.500;6.802;2023-02-15T06:49:29;3.60;99.90
10581;DHT22;5338;51.500;6.802;2023-02-15T06:51:56;3.70;99.90
10581;DHT22;5338;51.500;6.802;2023-02-15T06:54:24;3.80;99.90
10581;DHT22;5338;51.500;6.802;2023-02-15T06:56:51;4.30;99.90
10581;DHT22;5338;51.500;6.802;2023-02-15T06:59:19;4.60;99.90
10581;DHT22;5338;51.500;6.802;2023-02-15T07:01:48;4.90;99.90
10581;DHT22;5338;51.500;6.802;2023-02-15T07:04:15;5.80;99.90
10581;DHT22;5338;51.500;6.802;2023-02-15T07:06:42;5.90;99.90
10581;DHT22;5338;51.500;6.802;2023-02-15T07:09:09;5.90;99.90
10581;DHT22;5338;51.500;6.802;2023-02-15T07:11:37;5.90;99.90
10581;DHT22;5338;51.500;6.802;2023-02-15T07:14:22;6.00;99.90
10581;DHT22;5338;51.500;6.802;2023-02-15T07:16:48;6.00;99.90
10581;DHT22;5338;51.500;6.802;2023-02-15T07:19:15;6.20;99.90
10581;DHT22;5338;51.500;6.802;2023-02-15T07:21:42;6.50;99.90
10581;DHT22;5338;51.500;6.802;2023-02-15T07:24:09;6.80;99.90
10581;DHT22;5338;51.500;6.802;2023-02-15T07:26:37;7.40;99.90
10581;DHT22;5338;51.500;6.802;2023-02-15T07:29:04;8.10;99.90
10581;DHT22;5338;51.500;6.802;2023-02-15T07:31:31;8.60;99.90
10581;DHT22;5338;51.500;6.802;2023-02-15T07:33:58;9.10;99.90
10581;DHT22;5338;51.500;6.802;2023-02-15T07:36:25;9.70;99.90
10581;DHT22;5338;51.500;6.802;2023-02-15T07:38:51;10.10;97.90
10581;DHT22;5338;51.500;6.802;2023-02-15T07:41:18;10.20;83.50
10581;DHT22;5338;51.500;6.802;2023-02-15T07:43:46;10.40;82.90
10581;DHT22;5338;51.500;6.802;2023-02-15T07:46:15;10.70;76.90
10581;DHT22;5338;51.500;6.802;2023-02-15T07:48:42;11.00;70.70
10581;DHT22;5338;51.500;6.802;2023-02-15T07:51:11;11.10;65.40
10581;DHT22;5338;51.500;6.802;2023-02-15T07:53:38;10.90;62.40
10581;DHT22;5338;51.500;6.802;2023-02-15T07:56:07;10.80;61.30
10581;DHT22;5338;51.500;6.802;2023-02-15T07:58:34;10.90;64.70
10581;DHT22;5338;51.500;6.802;2023-02-15T08:01:24;10.30;62.40
10581;DHT22;5338;51.500;6.802;2023-02-15T08:03:51;10.60;64.30
10581;DHT22;5338;51.500;6.802;2023-02-15T08:06:19;10.90;62.20
10581;DHT22;5338;51.500;6.802;2023-02-15T08:08:46;11.00;60.20
10581;DHT22;5338;51.500;6.802;2023-02-15T08:11:19;10.90;56.80
10581;DHT22;5338;51.500;6.802;2023-02-15T08:13:53;10.90;57.40
10581;DHT22;5338;51.500;6.802;2023-02-15T08:16:24;10.90;58.00
10581;DHT22;5338;51.500;6.802;2023-02-15T08:18:51;10.50;56.80
10581;DHT22;5338;51.500;6.802;2023-02-15T08:21:18;9.80;59.00
10581;DHT22;5338;51.500;6.802;2023-02-15T08:23:45;9.60;66.60
10581;DHT22;5338;51.500;6.802;2023-02-15T08:26:12;9.70;73.30
10581;DHT22;5338;51.500;6.802;2023-02-15T08:28:39;9.60;65.90
10581;DHT22;5338;51.500;6.802;2023-02-15T08:31:07;9.40;71.20
10581;DHT22;5338;51.500;6.802;2023-02-15T08:33:36;9.20;72.30
10581;DHT22;5338;51.500;6.802;2023-02-15T08:36:03;9.20;72.90
10581;DHT22;5338;51.500;6.802;2023-02-15T08:38:31;9.10;76.40
10581;DHT22;5338;51.500;6.802;2023-02-15T08:40:58;9.00;76.90
10581;DHT22;5338;51.500;6.802;2023-02-15T08:43:24;9.20;80.90
10581;DHT22;5338;51.500;6.802;2023-02-15T08:45:51;9.30;75.00
10581;DHT22;5338;51.500;6.802;2023-02-15T08:48:18;9.40;71.10
10581;DHT22;5338;51.500;6.802;2023-02-15T08:50:46;9.50;71.70
10581;DHT22;5338;51.500;6.802;2023-02-15T08:53:13;9.70;69.80
10581;DHT22;5338;51.500;6.802;2023-02-15T08:55:39;9.80;67.80
10581;DHT22;5338;51.500;6.802;2023-02-15T08:58:06;9.80;67.50
10581;DHT22;5338;51.500;6.802;2023-02-15T09:00:33;10.00;64.60
10581;DHT22;5338;51.500;6.802;2023-02-15T09:03:00;10.30;63.90
10581;DHT22;5338;51.500;6.802;2023-02-15T09:05:26;10.10;58.50
10581;DHT22;5338;51.500;6.802;2023-02-15T09:07:54;10.20;59.60
10581;DHT22;5338;51.500;6.802;2023-02-15T09:10:21;10.20;57.60
10581;DHT22;5338;51.500;6.802;2023-02-15T09:12:48;9.90;58.60
10581;DHT22;5338;51.500;6.802;2023-02-15T09:15:16;9.80;61.70
10581;DHT22;5338;51.500;6.802;2023-02-15T09:17:43;10.00;61.50
10581;DHT22;5338;51.500;6.802;2023-02-15T09:20:10;10.30;59.40
10581;DHT22;5338;51.500;6.802;2023-02-15T09:22:37;10.20;55.40
10581;DHT22;5338;51.500;6.802;2023-02-15T09:25:05;10.20;54.90
10581;DHT22;5338;51.500;6.802;2023-02-15T09:27:32;10.00;56.20
10581;DHT22;5338;51.500;6.802;2023-02-15T09:29:59;10.00;61.40
10581;DHT22;5338;51.500;6.802;2023-02-15T09:32:26;10.20;57.30
10581;DHT22;5338;51.500;6.802;2023-02-15T09:34:53;10.30;57.30
10581;DHT22;5338;51.500;6.802;2023-02-15T09:37:19;10.50;53.50
10581;DHT22;5338;51.500;6.802;2023-02-15T09:39:46;10.60;56.10
10581;DHT22;5338;51.500;6.802;2023-02-15T09:42:32;10.90;52.60
10581;DHT22;5338;51.500;6.802;2023-02-15T09:45:15;10.90;48.00
10581;DHT22;5338;51.500;6.802;2023-02-15T09:48:16;10.80;50.40
10581;DHT22;5338;51.500;6.802;2023-02-15T09:50:53;11.00;47.50
10581;DHT22;5338;51.500;6.802;2023-02-15T09:53:36;11.00;48.30
10581;DHT22;5338;51.500;6.802;2023-02-15T09:56:12;10.70;46.90
10581;DHT22;5338;51.500;6.802;2023-02-15T09:58:48;10.70;48.30
10581;DHT22;5338;51.500;6.802;2023-02-15T10:01:24;10.90;49.10
10581;DHT22;5338;51.500;6.802;2023-02-15T10:04:08;11.10;49.40
10581;DHT22;5338;51.500;6.802;2023-02-15T10:06:43;11.50;47.90
10581;DHT22;5338;51.500;6.802;2023-02-15T10:09:26;11.80;46.90
10581;DHT22;5338;51.500;6.802;2023-02-15T10:12:04;11.90;44.30
10581;DHT22;5338;51.500;6.802;2023-02-15T10:15:09;11.90;41.20
10581;DHT22;5338;51.500;6.802;2023-02-15T10:17:49;11.80;40.20
10581;DHT22;5338;51.500;6.802;2023-02-15T10:20:23;11.80;41.30
10581;DHT22;5338;51.500;6.802;2023-02-15T10:23:13;11.80;41.50
10581;DHT22;5338;51.500;6.802;2023-02-15T10:25:47;11.90;41.10
10581;DHT22;5338;51.500;6.802;2023-02-15T10:28:19;11.80;40.30
10581;DHT22;5338;51.500;6.802;2023-02-15T10:30:49;11.80;41.40
10581;DHT22;5338;51.500;6.802;2023-02-15T10:33:27;11.80;40.20
10581;DHT22;5338;51.500;6.802;2023-02-15T10:36:05;11.80;40.80
10581;DHT22;5338;51.500;6.802;2023-02-15T10:38:36;11.70;40.00
10581;DHT22;5338;51.500;6.802;2023-02-15T10:41:15;11.70;40.10
10581;DHT22;5338;51.500;6.802;2023-02-15T10:43:55;11.60;41.10
10581;DHT22;5338;51.500;6.802;2023-02-15T10:46:40;11.80;41.00
10581;DHT22;5338;51.500;6.802;2023-02-15T10:49:23;12.20;41.50
10581;DHT22;5338;51.500;6.802;2023-02-15T10:52:04;12.20;39.60
10581;DHT22;5338;51.500;6.802;2023-02-15T10:54:39;12.30;40.00
10581;DHT22;5338;51.500;6.802;2023-02-15T10:57:18;12.50;39.60
10581;DHT22;5338;51.500;6.802;2023-02-15T11:00:03;12.90;38.50
10581;DHT22;5338;51.500;6.802;2023-02-15T11:02:50;12.90;37.40
10581;DHT22;5338;51.500;6.802;2023-02-15T11:05:32;13.40;37.20
10581;DHT22;5338;51.500;6.802;2023-02-15T11:08:03;13.90;35.50
10581;DHT22;5338;51.500;6.802;2023-02-15T11:10:35;14.40;33.80
10581;DHT22;5338;51.500;6.802;2023-02-15T11:13:09;14.80;32.50
10581;DHT22;5338;51.500;6.802;2023-02-15T11:15:39;15.20;31.70
10581;DHT22;5338;51.500;6.802;2023-02-15T11:18:13;15.20;29.10
10581;DHT22;5338;51.500;6.802;2023-02-15T11:20:45;15.20;28.60
10581;DHT22;5338;51.500;6.802;2023-02-15T11:23:15;15.40;28.40
10581;DHT22;5338;51.500;6.802;2023-02-15T11:25:46;15.50;27.40
10581;DHT22;5338;51.500;6.802;2023-02-15T11:28:22;15.90;27.60
10581;DHT22;5338;51.500;6.802;2023-02-15T11:30:54;16.00;27.30
10581;DHT22;5338;51.500;6.802;2023-02-15T11:33:26;15.80;25.70
10581;DHT22;5338;51.500;6.802;2023-02-15T11:36:00;15.90;26.00
10581;DHT22;5338;51.500;6.802;2023-02-15T11:38:31;16.10;25.70
10581;DHT22;5338;51.500;6.802;2023-02-15T11:41:01;16.30;25.10
10581;DHT22;5338;51.500;6.802;2023-02-15T11:43:34;16.30;24.20
10581;DHT22;5338;51.500;6.802;2023-02-15T11:46:02;16.30;24.50
10581;DHT22;5338;51.500;6.802;2023-02-15T11:48:31;16.20;23.30
10581;DHT22;5338;51.500;6.802;2023-02-15T11:50:59;15.90;23.70
10581;DHT22;5338;51.500;6.802;2023-02-15T11:53:31;15.90;24.00
10581;DHT22;5338;51.500;6.802;2023-02-15T11:55:59;15.90;24.20
10581;DHT22;5338;51.500;6.802;2023-02-15T11:58:30;15.50;23.50
10581;DHT22;5338;51.500;6.802;2023-02-15T12:01:04;15.30;24.30
10581;DHT22;5338;51.500;6.802;2023-02-15T12:03:45;15.30;24.60
10581;DHT22;5338;51.500;6.802;2023-02-15T12:06:18;15.10;24.50
10581;DHT22;5338;51.500;6.802;2023-02-15T12:08:52;15.20;24.50
10581;DHT22;5338;51.500;6.802;2023-02-15T12:11:24;15.40;24.90
10581;DHT22;5338;51.500;6.802;2023-02-15T12:13:56;15.60;24.80
10581;DHT22;5338;51.500;6.802;2023-02-15T12:16:24;15.60;23.90
10581;DHT22;5338;51.500;6.802;2023-02-15T12:18:55;15.50;23.50
10581;DHT22;5338;51.500;6.802;2023-02-15T12:21:28;15.20;23.90
10581;DHT22;5338;51.500;6.802;2023-02-15T12:23:58;15.20;24.70
10581;DHT22;5338;51.500;6.802;2023-02-15T12:26:29;15.40;25.20
10581;DHT22;5338;51.500;6.802;2023-02-15T12:29:00;15.40;23.90
10581;DHT22;5338;51.500;6.802;2023-02-15T12:31:31;15.10;24.10
10581;DHT22;5338;51.500;6.802;2023-02-15T12:34:03;15.30;24.70
10581;DHT22;5338;51.500;6.802;2023-02-15T12:36:42;15.50;24.30
10581;DHT22;5338;51.500;6.802;2023-02-15T12:39:21;15.70;24.30
10581;DHT22;5338;51.500;6.802;2023-02-15T12:42:01;15.80;23.80
10581;DHT22;5338;51.500;6.802;2023-02-15T12:44:30;15.70;24.10
10581;DHT22;5338;51.500;6.802;2023-02-15T12:46:59;15.70;25.90
10581;DHT22;5338;51.500;6.802;2023-02-15T12:49:29;15.90;27.50
10581;DHT22;5338;51.500;6.802;2023-02-15T12:51:57;15.70;24.60
10581;DHT22;5338;51.500;6.802;2023-02-15T12:54:34;15.60;26.60
10581;DHT22;5338;51.500;6.802;2023-02-15T12:57:24;15.80;29.50
10581;DHT22;5338;51.500;6.802;2023-02-15T12:59:53;16.00;29.10
10581;DHT22;5338;51.500;6.802;2023-02-15T13:02:24;15.90;27.80
10581;DHT22;5338;51.500;6.802;2023-02-15T13:04:54;15.60;24.80
10581;DHT22;5338;51.500;6.802;2023-02-15T13:07:22;15.40;25.30
10581;DHT22;5338;51.500;6.802;2023-02-15T13:09:50;15.40;25.90
10581;DHT22;5338;51.500;6.802;2023-02-15T13:12:20;15.30;26.70
10581;DHT22;5338;51.500;6.802;2023-02-15T13:14:50;15.40;28.30
10581;DHT22;5338;51.500;6.802;2023-02-15T13:17:20;15.30;26.90
10581;DHT22;5338;51.500;6.802;2023-02-15T13:19:52;15.10;24.40
10581;DHT22;5338;51.500;6.802;2023-02-15T13:22:22;15.00;26.70
10581;DHT22;5338;51.500;6.802;2023-02-15T13:24:54;15.00;28.00
10581;DHT22;5338;51.500;6.802;2023-02-15T13:27:35;15.00;26.30
10581;DHT22;5338;51.500;6.802;2023-02-15T13:30:10;14.90;26.20
10581;DHT22;5338;51.500;6.802;2023-02-15T13:32:41;14.80;25.80
10581;DHT22;5338;51.500;6.802;2023-02-15T13:35:14;14.70;26.20
10581;DHT22;5338;51.500;6.802;2023-02-15T13:37:51;14.70;26.90
10581;DHT22;5338;51.500;6.802;2023-02-15T13:40:25;14.60;25.40
10581;DHT22;5338;51.500;6.802;2023-02-15T13:42:57;14.50;26.00
10581;DHT22;5338;51.500;6.802;2023-02-15T13:45:35;14.40;26.00
10581;DHT22;5338;51.500;6.802;2023-02-15T13:48:13;14.40;25.70
10581;DHT22;5338;51.500;6.802;2023-02-15T13:50:54;14.30;25.70
10581;DHT22;5338;51.500;6.802;2023-02-15T13:53:41;14.10;24.20
10581;DHT22;5338;51.500;6.802;2023-02-15T13:56:16;14.00;24.80
10581;DHT22;5338;51.500;6.802;2023-02-15T14:01:44;14.00;26.10
10581;DHT22;5338;51.500;6.802;2023-02-15T14:04:31;14.10;26.10
10581;DHT22;5338;51.500;6.802;2023-02-15T14:07:25;14.20;25.60
10581;DHT22;5338;51.500;6.802;2023-02-15T14:10:08;14.10;25.20
10581;DHT22;5338;51.500;6.802;2023-02-15T14:12:53;14.10;25.40
10581;DHT22;5338;51.500;6.802;2023-02-15T14:15:32;14.10;25.80
10581;DHT22;5338;51.500;6.802;2023-02-15T14:18:12;14.00;25.20
10581;DHT22;5338;51.500;6.802;2023-02-15T14:20:46;13.90;24.40
10581;DHT22;5338;51.500;6.802;2023-02-15T14:23:25;13.80;24.80
10581;DHT22;5338;51.500;6.802;2023-02-15T14:26:00;13.80;25.20
10581;DHT22;5338;51.500;6.802;2023-02-15T14:28:34;13.70;25.30
10581;DHT22;5338;51.500;6.802;2023-02-15T14:31:03;13.60;25.50
10581;DHT22;5338;51.500;6.802;2023-02-15T14:33:33;13.50;25.90
10581;DHT22;5338;51.500;6.802;2023-02-15T14:36:03;13.50;25.70
10581;DHT22;5338;51.500;6.802;2023-02-15T14:38:44;13.30;26.00
10581;DHT22;5338;51.500;6.802;2023-02-15T14:41:17;13.30;25.90
10581;DHT22;5338;51.500;6.802;2023-02-15T14:43:49;13.20;26.60
10581;DHT22;5338;51.500;6.802;2023-02-15T14:46:25;13.20;26.40
10581;DHT22;5338;51.500;6.802;2023-02-15T14:48:55;13.20;26.30
10581;DHT22;5338;51.500;6.802;2023-02-15T14:51:56;13.10;26.30
10581;DHT22;5338;51.500;6.802;2023-02-15T14:54:57;13.10;26.70
10581;DHT22;5338;51.500;6.802;2023-02-15T14:57:26;13.00;27.00
10581;DHT22;5338;51.500;6.802;2023-02-15T14:59:55;13.00;27.40
10581;DHT22;5338;51.500;6.802;2023-02-15T15:02:25;12.90;27.10
10581;DHT22;5338;51.500;6.802;2023-02-15T15:05:00;12.90;27.60
10581;DHT22;5338;51.500;6.802;2023-02-15T15:07:36;12.80;27.60
10581;DHT22;5338;51.500;6.802;2023-02-15T15:10:23;12.80;27.50
10581;DHT22;5338;51.500;6.802;2023-02-15T15:12:54;12.80;28.20
10581;DHT22;5338;51.500;6.802;2023-02-15T15:15:33;12.80;28.50
10581;DHT22;5338;51.500;6.802;2023-02-15T15:18:04;12.70;28.60
10581;DHT22;5338;51.500;6.802;2023-02-15T15:20:40;12.70;28.80
10581;DHT22;5338;51.500;6.802;2023-02-15T15:26:26;12.70;29.20
10581;DHT22;5338;51.500;6.802;2023-02-15T15:28:59;12.80;29.60
10581;DHT22;5338;51.500;6.802;2023-02-15T15:34:44;12.80;29.40
10581;DHT22;5338;51.500;6.802;2023-02-15T15:37:45;12.80;29.50
10581;DHT22;5338;51.500;6.802;2023-02-15T15:40:36;12.80;29.60
10581;DHT22;5338;51.500;6.802;2023-02-15T15:43:40;12.80;29.80
10581;DHT22;5338;51.500;6.802;2023-02-15T15:46:46;12.70;30.00
10581;DHT22;5338;51.500;6.802;2023-02-15T15:49:16;12.70;30.80
10581;DHT22;5338;51.500;6.802;2023-02-15T15:51:45;12.70;30.70
10581;DHT22;5338;51.500;6.802;2023-02-15T15:54:15;12.70;30.80
10581;DHT22;5338;51.500;6.802;2023-02-15T15:56:45;12.60;31.50
10581;DHT22;5338;51.500;6.802;2023-02-15T15:59:18;12.50;31.50
10581;DHT22;5338;51.500;6.802;2023-02-15T16:01:46;12.40;32.10
10581;DHT22;5338;51.500;6.802;2023-02-15T16:04:23;12.40;32.90
10581;DHT22;5338;51.500;6.802;2023-02-15T16:06:51;12.30;33.40
10581;DHT22;5338;51.500;6.802;2023-02-15T16:09:20;12.20;34.40
10581;DHT22;5338;51.500;6.802;2023-02-15T16:11:48;12.10;35.60
10581;DHT22;5338;51.500;6.802;2023-02-15T16:14:22;12.10;36.00
10581;DHT22;5338;51.500;6.802;2023-02-15T16:16:52;12.00;36.60
10581;DHT22;5338;51.500;6.802;2023-02-15T16:19:23;12.00;37.90
10581;DHT22;5338;51.500;6.802;2023-02-15T16:21:50;11.90;38.00
10581;DHT22;5338;51.500;6.802;2023-02-15T16:24:41;11.90;38.90
10581;DHT22;5338;51.500;6.802;2023-02-15T16:30:29;11.70;41.70
10581;DHT22;5338;51.500;6.802;2023-02-15T16:33:04;11.60;43.30
10581;DHT22;5338;51.500;6.802;2023-02-15T16:35:32;11.60;45.30
10581;DHT22;5338;51.500;6.802;2023-02-15T16:37:59;11.50;46.70